SAS1817 ESSA-ENGM
Flight info
| Callsign | SAS1817 |
|---|---|
| Flight time | 0h 44m |
| Altitude | 34000 |
| Route | ARS6C ARS N623 IBGAX DCT EBURI N623 ESEBA ESEBA4L |
| Aircraft | A320/M-SDE3FGHIRWY/LB1 |
Departure
| Time | 2026-05-05 15:54 |
|---|---|
| Airport | Stockholm-Arlanda Airport (ESSA) |
Arrival
| Time | 2026-05-05 16:38 |
|---|---|
| Airport | Oslo-Gardermoen International Airport (ENGM) |
| Time | Latitude | Longitude | Altitude | Speed | Heading |
|---|---|---|---|---|---|
| 2026-05-05 15:39 | 59.65331 | 17.93139 | 111 ft | 0 kts | 251° |
| 2026-05-05 15:43 | 59.65331 | 17.93140 | 111 ft | 0 kts | 251° |
| 2026-05-05 15:47 | 59.65334 | 17.93161 | 112 ft | 2 kts | 251° |
| 2026-05-05 15:47 | 59.65340 | 17.93193 | 111 ft | 2 kts | 251° |
| 2026-05-05 15:47 | 59.65345 | 17.93224 | 110 ft | 2 kts | 251° |
| 2026-05-05 15:47 | 59.65350 | 17.93256 | 110 ft | 2 kts | 297° |
| 2026-05-05 15:48 | 59.65343 | 17.93275 | 110 ft | 0 kts | 342° |
| 2026-05-05 15:49 | 59.65383 | 17.93250 | 112 ft | 15 kts | 343° |
| 2026-05-05 15:50 | 59.65495 | 17.93158 | 112 ft | 18 kts | 309° |
| 2026-05-05 15:50 | 59.65476 | 17.92910 | 112 ft | 22 kts | 248° |
| 2026-05-05 15:50 | 59.65389 | 17.92599 | 111 ft | 30 kts | 227° |
| 2026-05-05 15:50 | 59.65211 | 17.92391 | 112 ft | 30 kts | 195° |
| 2026-05-05 15:51 | 59.65004 | 17.92313 | 112 ft | 30 kts | 190° |
| 2026-05-05 15:51 | 59.64795 | 17.92237 | 112 ft | 31 kts | 190° |
| 2026-05-05 15:51 | 59.64586 | 17.92161 | 112 ft | 30 kts | 190° |
| 2026-05-05 15:51 | 59.64418 | 17.92061 | 113 ft | 20 kts | 233° |
| 2026-05-05 15:52 | 59.64310 | 17.91895 | 112 ft | 23 kts | 191° |
| 2026-05-05 15:52 | 59.64124 | 17.91827 | 114 ft | 30 kts | 191° |
| 2026-05-05 15:52 | 59.63915 | 17.91753 | 110 ft | 31 kts | 191° |
| 2026-05-05 15:52 | 59.63743 | 17.91542 | 106 ft | 25 kts | 229° |
| 2026-05-05 15:53 | 59.63795 | 17.91347 | 110 ft | 21 kts | 6° |
| 2026-05-05 15:53 | 59.64015 | 17.91424 | 109 ft | 61 kts | 9° |
| 2026-05-05 15:53 | 59.64661 | 17.91661 | 110 ft | 125 kts | 10° |
| 2026-05-05 15:53 | 59.65692 | 17.92036 | 165 ft | 169 kts | 11° |
| 2026-05-05 15:54 | 59.66809 | 17.92521 | 901 ft | 164 kts | 8° |
| 2026-05-05 15:54 | 59.67976 | 17.92913 | 1446 ft | 179 kts | 357° |
| 2026-05-05 15:54 | 59.69202 | 17.92199 | 1875 ft | 193 kts | 321° |
| 2026-05-05 15:54 | 59.70021 | 17.90117 | 2669 ft | 196 kts | 289° |
| 2026-05-05 15:55 | 59.70093 | 17.87437 | 3531 ft | 200 kts | 258° |
| 2026-05-05 15:55 | 59.69737 | 17.84765 | 4412 ft | 202 kts | 257° |
| 2026-05-05 15:55 | 59.69367 | 17.82073 | 5261 ft | 204 kts | 256° |
| 2026-05-05 15:55 | 59.68995 | 17.79351 | 6109 ft | 206 kts | 256° |
| 2026-05-05 15:56 | 59.68608 | 17.76580 | 6811 ft | 216 kts | 255° |
| 2026-05-05 15:56 | 59.68145 | 17.73589 | 7203 ft | 239 kts | 253° |
| 2026-05-05 15:56 | 59.67618 | 17.70316 | 7729 ft | 257 kts | 253° |
| 2026-05-05 15:56 | 59.67047 | 17.66930 | 8571 ft | 262 kts | 248° |
| 2026-05-05 15:57 | 59.66068 | 17.63851 | 9463 ft | 269 kts | 229° |
| 2026-05-05 15:57 | 59.64714 | 17.61235 | 10186 ft | 280 kts | 226° |
| 2026-05-05 15:57 | 59.63315 | 17.58338 | 10483 ft | 302 kts | 234° |
| 2026-05-05 15:57 | 59.62158 | 17.54709 | 10727 ft | 323 kts | 246° |
| 2026-05-05 15:58 | 59.61412 | 17.50400 | 10985 ft | 341 kts | 259° |
| 2026-05-05 15:58 | 59.61177 | 17.45698 | 11609 ft | 347 kts | 267° |
| 2026-05-05 15:58 | 59.61051 | 17.40928 | 12406 ft | 349 kts | 267° |
| 2026-05-05 15:58 | 59.60912 | 17.36146 | 13234 ft | 349 kts | 266° |
| 2026-05-05 15:59 | 59.60767 | 17.31344 | 13995 ft | 350 kts | 266° |
| 2026-05-05 15:59 | 59.60622 | 17.26558 | 14750 ft | 347 kts | 266° |
| 2026-05-05 15:59 | 59.60478 | 17.21847 | 15646 ft | 341 kts | 265° |
| 2026-05-05 15:59 | 59.60334 | 17.17183 | 16448 ft | 340 kts | 265° |
| 2026-05-05 16:00 | 59.60189 | 17.12538 | 17179 ft | 339 kts | 265° |
| 2026-05-05 16:00 | 59.60044 | 17.07903 | 17893 ft | 338 kts | 264° |
| 2026-05-05 16:00 | 59.59896 | 17.03280 | 18532 ft | 337 kts | 264° |
| 2026-05-05 16:00 | 59.59748 | 16.98656 | 19070 ft | 338 kts | 264° |
| 2026-05-05 16:01 | 59.59597 | 16.94004 | 19558 ft | 341 kts | 264° |
| 2026-05-05 16:01 | 59.59442 | 16.89320 | 20037 ft | 344 kts | 264° |
| 2026-05-05 16:01 | 59.59288 | 16.84661 | 20501 ft | 346 kts | 264° |
| 2026-05-05 16:01 | 59.59130 | 16.79899 | 20954 ft | 349 kts | 264° |
| 2026-05-05 16:02 | 59.58969 | 16.75105 | 21394 ft | 351 kts | 264° |
| 2026-05-05 16:02 | 59.58804 | 16.70276 | 21823 ft | 354 kts | 264° |
| 2026-05-05 16:02 | 59.58713 | 16.65406 | 22239 ft | 358 kts | 270° |
| 2026-05-05 16:02 | 59.59077 | 16.60495 | 22641 ft | 365 kts | 277° |
| 2026-05-05 16:03 | 59.59583 | 16.55578 | 23055 ft | 367 kts | 277° |
| 2026-05-05 16:03 | 59.60090 | 16.50613 | 23467 ft | 370 kts | 277° |
| 2026-05-05 16:03 | 59.60595 | 16.45634 | 23892 ft | 370 kts | 276° |
| 2026-05-05 16:03 | 59.61098 | 16.40652 | 24277 ft | 371 kts | 276° |
| 2026-05-05 16:04 | 59.61598 | 16.35646 | 24619 ft | 372 kts | 276° |
| 2026-05-05 16:04 | 59.62095 | 16.30617 | 24940 ft | 374 kts | 276° |
| 2026-05-05 16:04 | 59.62590 | 16.25570 | 25252 ft | 376 kts | 276° |
| 2026-05-05 16:04 | 59.63095 | 16.20489 | 25563 ft | 378 kts | 277° |
| 2026-05-05 16:05 | 59.63649 | 16.15393 | 25874 ft | 380 kts | 278° |
| 2026-05-05 16:05 | 59.64240 | 16.10289 | 26175 ft | 382 kts | 278° |
| 2026-05-05 16:05 | 59.64849 | 16.05154 | 26466 ft | 384 kts | 278° |
| 2026-05-05 16:05 | 59.65460 | 15.99997 | 26754 ft | 386 kts | 278° |
| 2026-05-05 16:06 | 59.66067 | 15.94820 | 27032 ft | 388 kts | 278° |
| 2026-05-05 16:06 | 59.66670 | 15.89612 | 27304 ft | 389 kts | 278° |
| 2026-05-05 16:06 | 59.67266 | 15.84376 | 27658 ft | 390 kts | 278° |
| 2026-05-05 16:06 | 59.67853 | 15.79170 | 28128 ft | 387 kts | 278° |
| 2026-05-05 16:07 | 59.68434 | 15.73979 | 28556 ft | 385 kts | 277° |
| 2026-05-05 16:07 | 59.69008 | 15.68813 | 28952 ft | 384 kts | 277° |
| 2026-05-05 16:07 | 59.69583 | 15.63651 | 29335 ft | 384 kts | 277° |
| 2026-05-05 16:07 | 59.70147 | 15.58560 | 29721 ft | 383 kts | 277° |
| 2026-05-05 16:08 | 59.70715 | 15.53409 | 30092 ft | 382 kts | 277° |
| 2026-05-05 16:08 | 59.71279 | 15.48271 | 30394 ft | 382 kts | 277° |
| 2026-05-05 16:08 | 59.71842 | 15.43125 | 30676 ft | 383 kts | 277° |
| 2026-05-05 16:08 | 59.72404 | 15.37973 | 30957 ft | 383 kts | 277° |
| 2026-05-05 16:09 | 59.72964 | 15.32802 | 31231 ft | 384 kts | 277° |
| 2026-05-05 16:09 | 59.73523 | 15.27629 | 31506 ft | 384 kts | 277° |
| 2026-05-05 16:09 | 59.74079 | 15.22444 | 31799 ft | 385 kts | 278° |
| 2026-05-05 16:09 | 59.74636 | 15.17254 | 32090 ft | 385 kts | 278° |
| 2026-05-05 16:10 | 59.75192 | 15.12048 | 32377 ft | 386 kts | 278° |
| 2026-05-05 16:10 | 59.75747 | 15.06844 | 32638 ft | 386 kts | 278° |
| 2026-05-05 16:10 | 59.76302 | 15.01624 | 32918 ft | 387 kts | 278° |
| 2026-05-05 16:10 | 59.76855 | 14.96401 | 33201 ft | 387 kts | 278° |
| 2026-05-05 16:11 | 59.77404 | 14.91170 | 33481 ft | 387 kts | 278° |
| 2026-05-05 16:11 | 59.79039 | 14.75419 | 33878 ft | 389 kts | 278° |
| 2026-05-05 16:12 | 59.79578 | 14.70153 | 33878 ft | 389 kts | 278° |
| 2026-05-05 16:13 | 59.82277 | 14.43869 | 33391 ft | 385 kts | 277° |
| 2026-05-05 16:13 | 59.82807 | 14.38642 | 32518 ft | 385 kts | 277° |
| 2026-05-05 16:13 | 59.83332 | 14.33426 | 31685 ft | 385 kts | 277° |
| 2026-05-05 16:14 | 59.84372 | 14.23025 | 30089 ft | 382 kts | 276° |
| 2026-05-05 16:14 | 59.85397 | 14.12684 | 28122 ft | 380 kts | 276° |
| 2026-05-05 16:15 | 59.86406 | 14.02337 | 25972 ft | 381 kts | 277° |
| 2026-05-05 16:15 | 59.87396 | 13.92231 | 24256 ft | 355 kts | 277° |
| 2026-05-05 16:16 | 59.88320 | 13.82716 | 22884 ft | 343 kts | 277° |
| 2026-05-05 16:16 | 59.89203 | 13.73478 | 21313 ft | 338 kts | 277° |
| 2026-05-05 16:17 | 59.90071 | 13.64311 | 19744 ft | 336 kts | 278° |
| 2026-05-05 16:17 | 59.90502 | 13.59734 | 18988 ft | 336 kts | 278° |
| 2026-05-05 16:18 | 59.91356 | 13.50641 | 17474 ft | 336 kts | 279° |
| 2026-05-05 16:18 | 59.91675 | 13.46042 | 16652 ft | 336 kts | 272° |
| 2026-05-05 16:18 | 59.91811 | 13.36674 | 15026 ft | 340 kts | 272° |
| 2026-05-05 16:19 | 59.91868 | 13.31951 | 14277 ft | 343 kts | 272° |
| 2026-05-05 16:19 | 59.91921 | 13.27178 | 13517 ft | 345 kts | 273° |
| 2026-05-05 16:19 | 59.92024 | 13.17623 | 12104 ft | 344 kts | 272° |
| 2026-05-05 16:20 | 59.92121 | 13.08154 | 10963 ft | 341 kts | 272° |
| 2026-05-05 16:20 | 59.92206 | 12.98677 | 10870 ft | 343 kts | 272° |
| 2026-05-05 16:21 | 59.92288 | 12.89185 | 10870 ft | 342 kts | 272° |
| 2026-05-05 16:22 | 59.92402 | 12.75028 | 10111 ft | 337 kts | 272° |
| 2026-05-05 16:22 | 59.92464 | 12.65693 | 9862 ft | 329 kts | 271° |
| 2026-05-05 16:23 | 59.92515 | 12.56799 | 9875 ft | 318 kts | 271° |
| 2026-05-05 16:23 | 59.92537 | 12.52399 | 9874 ft | 317 kts | 271° |
| 2026-05-05 16:23 | 59.92582 | 12.43602 | 9877 ft | 317 kts | 271° |
| 2026-05-05 16:24 | 59.92607 | 12.39204 | 9876 ft | 317 kts | 271° |
| 2026-05-05 16:24 | 59.92629 | 12.34872 | 9877 ft | 317 kts | 271° |
| 2026-05-05 16:24 | 59.92668 | 12.26084 | 9877 ft | 317 kts | 271° |
| 2026-05-05 16:25 | 59.92685 | 12.21751 | 9870 ft | 304 kts | 271° |
| 2026-05-05 16:25 | 59.92707 | 12.13682 | 9874 ft | 285 kts | 271° |
| 2026-05-05 16:25 | 59.92713 | 12.09732 | 9873 ft | 285 kts | 271° |
| 2026-05-05 16:26 | 59.92723 | 12.01856 | 9874 ft | 284 kts | 271° |
| 2026-05-05 16:26 | 59.92730 | 11.94173 | 9870 ft | 265 kts | 271° |
| 2026-05-05 16:27 | 59.92735 | 11.90533 | 9875 ft | 261 kts | 271° |
| 2026-05-05 16:27 | 59.92739 | 11.86919 | 9876 ft | 260 kts | 271° |
| 2026-05-05 16:27 | 59.92742 | 11.83300 | 9879 ft | 262 kts | 271° |
| 2026-05-05 16:27 | 59.92743 | 11.79655 | 9874 ft | 263 kts | 271° |
| 2026-05-05 16:28 | 59.92743 | 11.76002 | 9876 ft | 263 kts | 271° |
| 2026-05-05 16:28 | 59.92744 | 11.72358 | 9869 ft | 263 kts | 271° |
| 2026-05-05 16:28 | 59.92743 | 11.68785 | 9528 ft | 261 kts | 271° |
| 2026-05-05 16:28 | 59.92741 | 11.65164 | 9117 ft | 261 kts | 271° |
| 2026-05-05 16:29 | 59.92736 | 11.61561 | 8723 ft | 259 kts | 271° |
| 2026-05-05 16:29 | 59.92729 | 11.57983 | 8344 ft | 257 kts | 271° |
| 2026-05-05 16:29 | 59.92718 | 11.54425 | 7955 ft | 256 kts | 271° |
| 2026-05-05 16:29 | 59.92708 | 11.50883 | 7577 ft | 255 kts | 271° |
| 2026-05-05 16:30 | 59.92698 | 11.47363 | 7205 ft | 253 kts | 271° |
| 2026-05-05 16:30 | 59.92690 | 11.43864 | 6821 ft | 252 kts | 271° |
| 2026-05-05 16:30 | 59.92681 | 11.40372 | 6444 ft | 251 kts | 271° |
| 2026-05-05 16:30 | 59.92671 | 11.36902 | 6057 ft | 250 kts | 271° |
| 2026-05-05 16:31 | 59.92661 | 11.33450 | 5736 ft | 247 kts | 271° |
| 2026-05-05 16:31 | 59.92650 | 11.30008 | 5605 ft | 249 kts | 271° |
| 2026-05-05 16:31 | 59.92635 | 11.26553 | 5462 ft | 249 kts | 271° |
| 2026-05-05 16:31 | 59.92619 | 11.23113 | 5333 ft | 248 kts | 271° |
| 2026-05-05 16:32 | 59.92602 | 11.19662 | 5203 ft | 249 kts | 271° |
| 2026-05-05 16:32 | 59.92585 | 11.16219 | 5071 ft | 248 kts | 271° |
| 2026-05-05 16:32 | 59.92737 | 11.12842 | 5000 ft | 244 kts | 286° |
| 2026-05-05 16:32 | 59.93440 | 11.09833 | 4802 ft | 239 kts | 306° |
| 2026-05-05 16:33 | 59.94583 | 11.07376 | 4675 ft | 243 kts | 314° |
| 2026-05-05 16:33 | 59.95377 | 11.05792 | 4587 ft | 244 kts | 314° |
| 2026-05-05 16:33 | 59.96580 | 11.03401 | 4447 ft | 245 kts | 316° |
| 2026-05-05 16:33 | 59.98017 | 11.01585 | 4320 ft | 247 kts | 336° |
| 2026-05-05 16:34 | 59.99714 | 11.00913 | 4185 ft | 252 kts | 357° |
| 2026-05-05 16:34 | 60.01453 | 11.01494 | 4051 ft | 256 kts | 12° |
| 2026-05-05 16:34 | 60.03155 | 11.02480 | 3743 ft | 253 kts | 13° |
| 2026-05-05 16:34 | 60.04798 | 11.03443 | 3408 ft | 235 kts | 12° |
| 2026-05-05 16:35 | 60.06282 | 11.04299 | 3105 ft | 210 kts | 12° |
| 2026-05-05 16:35 | 60.07662 | 11.05086 | 2822 ft | 202 kts | 11° |
| 2026-05-05 16:35 | 60.08988 | 11.05843 | 2546 ft | 195 kts | 12° |
| 2026-05-05 16:35 | 60.10247 | 11.06567 | 2305 ft | 181 kts | 11° |
| 2026-05-05 16:36 | 60.11422 | 11.07242 | 2060 ft | 169 kts | 11° |
| 2026-05-05 16:36 | 60.12506 | 11.07866 | 1831 ft | 153 kts | 11° |
| 2026-05-05 16:36 | 60.13500 | 11.08437 | 1600 ft | 145 kts | 9° |
| 2026-05-05 16:36 | 60.14455 | 11.08984 | 1374 ft | 142 kts | 9° |
| 2026-05-05 16:37 | 60.15412 | 11.09529 | 1160 ft | 145 kts | 9° |
| 2026-05-05 16:37 | 60.16390 | 11.10095 | 978 ft | 149 kts | 10° |
| 2026-05-05 16:37 | 60.17382 | 11.10663 | 773 ft | 148 kts | 12° |
| 2026-05-05 16:37 | 60.18350 | 11.11223 | 683 ft | 134 kts | 14° |
| 2026-05-05 16:38 | 60.18994 | 11.11593 | 684 ft | 67 kts | 17° |
| 2026-05-05 16:38 | 60.19294 | 11.11696 | 680 ft | 33 kts | 340° |
| 2026-05-05 16:38 | 60.19376 | 11.11555 | 681 ft | 14 kts | 295° |
| 2026-05-05 16:38 | 60.19395 | 11.11404 | 680 ft | 12 kts | 284° |
| 2026-05-05 16:39 | 60.19430 | 11.11151 | 683 ft | 24 kts | 285° |
| 2026-05-05 16:39 | 60.19481 | 11.10804 | 680 ft | 26 kts | 285° |
| 2026-05-05 16:39 | 60.19516 | 11.10553 | 683 ft | 17 kts | 286° |
| 2026-05-05 16:39 | 60.19529 | 11.10411 | 684 ft | 7 kts | 243° |
| 2026-05-05 16:40 | 60.19480 | 11.10375 | 685 ft | 9 kts | 194° |
| 2026-05-05 16:40 | 60.19448 | 11.10356 | 685 ft | 0 kts | 196° |